Flight Track Log - Related Links

Times and Time Zones

All times are in EDT time to prevent confusion due to time zone crossing. See the AAL1686 flight status page for this flight to view local times or setup timezone preferences in your user account.

Time Position Orientation Groundspeed Altitude Reporting Facility
EDT Latitude Longitude Course Direction KTS MPH feet Rate Location/Type
Tue 07:36:19 PM 33.9333 -118.4500 55° Northeast 175 201 2,000  Level Southern California TRACON
Tue 07:37:40 PM 33.9019 -118.5406 247° West 222 255 4,700 1,972 Climbing Los Angeles Center
Tue 07:38:00 PM 34.1263 -118.0807 59° Northeast  Level FlightAware Approximate
Tue 07:38:42 PM 33.8553 -118.5969 225° Southwest 264 304 6,700  Level Los Angeles Center
Tue 07:39:00 PM 34.1921 -117.9491 59° Northeast  Level FlightAware Approximate
Tue 07:39:44 PM 33.8056 -118.5281 131° Southeast 302 348 9,000  Level Los Angeles Center
Tue 07:40:00 PM 34.2616 -117.8320 68° East  Level FlightAware Approximate
Tue 07:40:46 PM 33.8711 -118.4683 37° Northeast 307 353 11,000  Level Los Angeles Center
Tue 07:41:00 PM 34.3279 -117.7055 55° Northeast  Level FlightAware Approximate
Tue 07:41:48 PM 33.9528 -118.3972 36° Northeast 368 423 12,200  Level Los Angeles Center
Tue 07:42:50 PM 34.0139 -118.2894 56° Northeast 397 457 14,300 1,984 Climbing Los Angeles Center
Tue 07:43:52 PM 34.0794 -118.1753 55° Northeast 407 468 16,300 1,935 Climbing Los Angeles Center
Tue 07:44:54 PM 34.1461 -118.0569 56° Northeast 422 486 18,300 1,887 Climbing Los Angeles Center
Tue 07:45:56 PM 34.2136 -117.9353 56° Northeast 433 498 20,200 1,645 Climbing Los Angeles Center
Tue 07:46:58 PM 34.2839 -117.8106 56° Northeast 444 511 21,700 1,597 Climbing Los Angeles Center
Tue 07:48:00 PM 34.3686 -117.6581 56° Northeast 454 522 23,500 1,306 Climbing Los Angeles Center
Tue 07:49:02 PM 34.4308 -117.5458 56° Northeast 466 536 24,400 1,161 Climbing Los Angeles Center
Tue 07:50:04 PM 34.5186 -117.3869 56° Northeast 476 548 25,900 1,452 Climbing Los Angeles Center
Tue 07:51:06 PM 34.5925 -117.2519 56° Northeast 482 555 27,400 1,016 Climbing Los Angeles Center
Tue 07:52:08 PM 34.6661 -117.1192 56° Northeast 479 551 28,000 435 Climbing Los Angeles Center
Tue 07:53:10 PM 34.7383 -116.9842 57° Northeast 480 552 28,300 871 Climbing Los Angeles Center
Tue 07:54:12 PM 34.8117 -116.8508 56° Northeast 478 550 29,800 1,403 Climbing Los Angeles Center
Tue 07:55:14 PM 34.8981 -116.6897 57° Northeast 477 549 31,200 1,210 Climbing Los Angeles Center
Tue 07:56:16 PM 34.9742 -116.5592 55° Northeast 476 548 32,300 823 Climbing Los Angeles Center
Tue 07:57:18 PM 35.0650 -116.4475 45° Northeast 466 536 32,900 339 Climbing Los Angeles Center
Tue 07:58:20 PM 35.1539 -116.3356 46° Northeast 463 533 33,000 48 Climbing Los Angeles Center
Tue 07:59:23 PM 35.2456 -116.2219 45° Northeast 467 537 33,000  Level Los Angeles Center
Tue 08:00:25 PM 35.3531 -116.0819 47° Northeast 470 541 33,000  Level Los Angeles Center
Tue 08:01:27 PM 35.4439 -115.9669 46° Northeast 472 543 33,000 48 Level Los Angeles Center
Tue 08:02:29 PM 35.5406 -115.8528 44° Northeast 474 545 33,100  Climbing Los Angeles Center
Tue 08:03:31 PM 35.6294 -115.7375 46° Northeast 467 537 33,000 -48 Descending Los Angeles Center
Tue 08:04:33 PM 35.6508 -115.5758 81° East 487 560 33,000 -48 Level Los Angeles Center
Tue 08:05:35 PM 35.6922 -115.3881 75° East 481 554 32,900  Descending Los Angeles Center
Tue 08:06:37 PM 35.7300 -115.2319 73° East 479 551 33,000 48 Climbing Los Angeles Center
Tue 08:07:39 PM 35.7667 -115.0756 74° East 480 552 33,000  Level Los Angeles Center
Tue 08:08:41 PM 35.8014 -114.9158 75° East 483 556 33,000 48 Level Los Angeles Center
Tue 08:09:43 PM 35.8358 -114.7558 75° East 484 557 33,100 48 Climbing Los Angeles Center
Tue 08:10:45 PM 35.8753 -114.5661 76° East 480 552 33,100 -48 Level Los Angeles Center
Tue 08:11:47 PM 35.9089 -114.4083 75° East 479 551 33,000 -48 Descending Los Angeles Center
Tue 08:12:49 PM 35.9417 -114.2489 76° East 481 554 33,000  Level Los Angeles Center
Tue 08:13:51 PM 35.9747 -114.0897 76° East 480 552 33,000  Level Los Angeles Center
Tue 08:14:54 PM 36.0078 -113.9297 76° East 481 554 33,000  Level Los Angeles Center
Tue 08:15:56 PM 36.0400 -113.7706 76° East 480 552 33,000  Level Los Angeles Center
Tue 08:16:58 PM 36.0781 -113.5781 76° East 481 554 33,000  Level Los Angeles Center
Tue 08:18:00 PM 36.1111 -113.4183 76° East 481 554 33,000  Level Los Angeles Center
Tue 08:19:02 PM 36.1450 -113.2514 76° East 484 557 33,000 48 Level Los Angeles Center
Tue 08:20:04 PM 36.1767 -113.0903 76° East 484 557 33,100 48 Climbing Los Angeles Center
Tue 08:21:06 PM 36.2081 -112.9289 76° East 485 558 33,100  Level Los Angeles Center
Tue 08:22:08 PM 36.2400 -112.7681 76° East 484 557 33,100 -48 Level Los Angeles Center
Tue 08:23:10 PM 36.2706 -112.6069 77° East 483 556 33,000 -48 Descending Los Angeles Center
Tue 08:24:12 PM 36.3081 -112.4142 76° East 482 555 33,000  Level Los Angeles Center
Tue 08:25:14 PM 36.3386 -112.2531 77° East 483 556 33,000  Level Los Angeles Center
Tue 08:26:16 PM 36.3694 -112.0908 77° East 484 557 33,000  Level Los Angeles Center
Tue 08:27:18 PM 36.3989 -111.9303 77° East 482 555 33,000 51 Level Los Angeles Center
Tue 08:28:14 PM 36.4300 -111.7686 77° East 486 559 33,100 51 Climbing Denver Center
Tue 08:29:15 PM 36.4586 -111.6061 78° East 485 558 33,100  Level Denver Center
Tue 08:30:17 PM 36.4883 -111.4436 77° East 485 558 33,100 -48 Level Denver Center
Tue 08:31:19 PM 36.5186 -111.2817 77° East 483 556 33,000 -44 Descending Denver Center
Tue 08:32:32 PM 36.5475 -111.1194 77° East 482 555 33,000 -44 Level Denver Center
Tue 08:33:35 PM 36.5894 -110.8931 77° East 482 555 32,900  Descending Denver Center
Tue 08:34:36 PM 36.6183 -110.7294 78° East 485 558 33,000 98 Climbing Denver Center
Tue 08:35:38 PM 36.6444 -110.5672 79° East 483 556 33,100 48 Climbing Denver Center
Tue 08:36:40 PM 36.6708 -110.4044 79° East 482 555 33,100 -49 Level Denver Center
Tue 08:37:41 PM 36.7003 -110.2408 77° East 485 558 33,000 -49 Descending Denver Center
Tue 08:38:43 PM 36.7306 -110.0664 78° East 480 552 33,000 -44 Level Denver Center
Tue 08:39:57 PM 36.7558 -109.9114 78° East 477 549 32,900  Descending Denver Center
Tue 08:40:59 PM 36.7908 -109.7028 78° East 479 551 33,000 98 Climbing Denver Center
Tue 08:42:00 PM 36.8203 -109.5186 79° East 482 555 33,100 49 Climbing Denver Center
Tue 08:43:02 PM 36.8475 -109.3614 78° East 484 557 33,100 -48 Level Denver Center
Tue 08:44:04 PM 36.8728 -109.2036 79° East 483 556 33,000 -48 Descending Denver Center
Tue 08:45:06 PM 36.9019 -109.0186 79° East 484 557 33,000  Level Denver Center
Tue 08:46:07 PM 36.9269 -108.8614 79° East 483 556 33,000  Level Denver Center
Tue 08:47:09 PM 36.9558 -108.6772 79° East 481 554 33,000  Level Denver Center
Tue 08:48:11 PM 36.9806 -108.5181 79° East 484 557 33,000 49 Level Denver Center
Tue 08:49:12 PM 37.0053 -108.3606 79° East 483 556 33,100 49 Climbing Denver Center
Tue 08:50:14 PM 37.0331 -108.1758 79° East 482 555 33,100 -48 Level Denver Center
Tue 08:51:16 PM 37.0569 -108.0178 79° East 483 556 33,000 -49 Descending Denver Center
Tue 08:52:17 PM 37.0850 -107.8331 79° East 482 555 33,000  Level Denver Center
Tue 08:53:19 PM 37.1039 -107.7011 80° East 483 556 33,000  Level Denver Center
Tue 08:54:21 PM 37.1314 -107.5164 79° East 482 555 33,000  Level Denver Center
Tue 08:55:34 PM 37.1581 -107.3297 80° East 486 559 33,000 44 Level Denver Center
Tue 08:56:36 PM 37.1881 -107.1169 80° East 486 559 33,100 48 Climbing Denver Center
Tue 08:57:38 PM 37.2108 -106.9569 80° East 486 559 33,100 -49 Level Denver Center
Tue 08:58:39 PM 37.2339 -106.7969 80° East 488 562 33,000 -49 Descending Denver Center
Tue 08:59:41 PM 37.2608 -106.6108 80° East 486 559 33,000  Level Denver Center
Tue 09:00:43 PM 37.2822 -106.4519 80° East 484 557 33,000  Level Denver Center
Tue 09:01:44 PM 37.3075 -106.2669 80° East 481 554 33,000  Level Denver Center
Tue 09:02:46 PM 37.3269 -106.1078 81° East 483 556 33,000  Level Denver Center
Tue 09:03:48 PM 37.3525 -105.9219 80° East 483 556 33,000  Level Denver Center
Tue 09:04:49 PM 37.3728 -105.7617 81° East 485 558 33,000 49 Level Denver Center
Tue 09:05:51 PM 37.3936 -105.5997 81° East 489 563 33,100 49 Climbing Denver Center
Tue 09:06:52 PM 37.4194 -105.4125 80° East 487 560 33,100 390 Level Denver Center
Tue 09:07:54 PM 37.4386 -105.2508 81° East 487 560 33,900 871 Climbing Denver Center
Tue 09:08:56 PM 37.4625 -105.0739 80° East 485 558 34,900 537 Climbing Denver Center
Tue 09:09:57 PM 37.4819 -104.9144 81° East 482 555 35,000 49 Climbing Denver Center
Tue 09:10:59 PM 37.5042 -104.7281 81° East 481 554 35,000  Level Denver Center
Tue 09:12:00 PM 37.5239 -104.5694 81° East 480 552 35,000  Level Denver Center
Tue 09:13:02 PM 37.5447 -104.3844 82° East 478 550 35,000  Level Denver Center
Tue 09:14:04 PM 37.5633 -104.2272 81° East 475 547 35,000  Level Denver Center
Tue 09:15:17 PM 37.5836 -104.0525 82° East 471 542 35,000  Level Denver Center
Tue 09:16:19 PM 37.6078 -103.8500 81° East 473 544 35,000  Level Denver Center
Tue 09:17:21 PM 37.6244 -103.6947 82° East 468 539 35,000  Level Denver Center
Tue 09:18:23 PM 37.6450 -103.5108 82° East 473 544 35,000  Level Denver Center
Tue 09:19:24 PM 37.6628 -103.3528 82° East 474 545 35,000  Level Denver Center
Tue 09:20:26 PM 37.6797 -103.1947 82° East 474 545 35,000  Level Denver Center
Tue 09:21:28 PM 37.6986 -103.0144 82° East 467 537 35,000  Level Denver Center
Tue 09:22:29 PM 37.7153 -102.8572 82° East 470 541 35,000  Level Denver Center
Tue 09:23:31 PM 37.7344 -102.6744 82° East 471 542 35,000  Level Denver Center
Tue 09:24:33 PM 37.7500 -102.5178 83° East 470 541 35,000  Level Denver Center
Tue 09:25:34 PM 37.7703 -102.3336 82° East 473 544 35,000  Level Denver Center
Tue 09:26:36 PM 37.7856 -102.1769 83° East 471 542 35,000  Level Denver Center
Tue 09:27:38 PM 37.8003 -102.0206 83° East 469 540 35,000  Level Denver Center
Tue 09:28:40 PM 37.8183 -101.8392 83° East 466 536 35,000  Level Denver Center
Tue 09:29:53 PM 37.8356 -101.6864 82° East 461 531 35,000  Level Denver Center
Tue 09:30:55 PM 37.8664 -101.5100 77° East 459 528 35,000  Level Denver Center
Tue 09:31:57 PM 37.8978 -101.3308 77° East 464 534 35,000  Level Denver Center
Tue 09:32:56 PM 37.9306 -101.1533 77° East 461 531 35,000  Level Kansas City Center
Tue 09:33:58 PM 37.9600 -101.0006 76° East 462 532 35,000  Level Kansas City Center
Tue 09:34:59 PM 37.9889 -100.8478 76° East 462 532 35,000  Level Kansas City Center
Tue 09:36:01 PM 38.0139 -100.6681 80° East 460 529 35,000  Level Kansas City Center
Tue 09:37:03 PM 38.0406 -100.5156 77° East 461 531 35,000  Level Kansas City Center
Tue 09:38:04 PM 38.0683 -100.3639 77° East 460 529 35,000  Level Kansas City Center
Tue 09:39:06 PM 38.0983 -100.1839 78° East 465 535 35,000  Level Kansas City Center
Tue 09:40:08 PM 38.1283 -100.0311 76° East 466 536 35,000  Level Kansas City Center
Tue 09:41:09 PM 38.1542 -99.8528 80° East 461 531 35,000  Level Kansas City Center
Tue 09:42:11 PM 38.1656 -99.6969 85° East 461 531 35,000  Level Kansas City Center
Tue 09:43:13 PM 38.1789 -99.5158 85° East 461 531 35,000  Level Kansas City Center
Tue 09:44:14 PM 38.1889 -99.3692 85° East 459 528 35,000  Level Kansas City Center
Tue 09:45:16 PM 38.2019 -99.2050 84° East 465 535 35,000  Level Kansas City Center
Tue 09:46:18 PM 38.2128 -99.0406 85° East 466 536 35,000  Level Kansas City Center
Tue 09:47:19 PM 38.2247 -98.8744 85° East 470 541 35,000  Level Kansas City Center
Tue 09:48:21 PM 38.2375 -98.7103 84° East 466 536 35,000  Level Kansas City Center
Tue 09:49:23 PM 38.2494 -98.5172 85° East 456 525 35,000  Level Kansas City Center
Tue 09:50:24 PM 38.2603 -98.3547 85° East 459 528 35,000  Level Kansas City Center
Tue 09:51:26 PM 38.2703 -98.1906 86° East 461 531 35,000  Level Kansas City Center
Tue 09:52:28 PM 38.2808 -98.0244 85° East 466 536 35,000  Level Kansas City Center
Tue 09:53:29 PM 38.2908 -97.8581 86° East 468 539 35,000  Level Kansas City Center
Tue 09:54:31 PM 38.2914 -97.6908 90° East 470 541 35,000  Level Kansas City Center
Tue 09:55:33 PM 38.3117 -97.5261 81° East 470 541 35,000  Level Kansas City Center
Tue 09:56:35 PM 38.3256 -97.3617 84° East 466 536 35,000  Level Kansas City Center
Tue 09:57:36 PM 38.3414 -97.1964 83° East 468 539 35,000  Level Kansas City Center
Tue 09:58:38 PM 38.3553 -97.0328 84° East 465 535 35,000  Level Kansas City Center
Tue 09:59:40 PM 38.3728 -96.8322 84° East 474 545 35,000  Level Kansas City Center
Tue 10:00:41 PM 38.3867 -96.6667 84° East 470 541 35,000  Level Kansas City Center
Tue 10:01:43 PM 38.4003 -96.4997 84° East 473 544 35,000  Level Kansas City Center
Tue 10:02:45 PM 38.4142 -96.3239 84° East 466 536 35,000  Level Kansas City Center
Tue 10:03:46 PM 38.4261 -96.1658 84° East 467 537 35,000  Level Kansas City Center
Tue 10:04:48 PM 38.4411 -95.9817 84° East 469 540 35,000  Level Kansas City Center
Tue 10:05:50 PM 38.4522 -95.8231 85° East 470 541 35,000  Level Kansas City Center
Tue 10:06:51 PM 38.4647 -95.6656 84° East 469 540 35,000  Level Kansas City Center
Tue 10:07:53 PM 38.4778 -95.4772 85° East 478 550 35,000  Level Kansas City Center
Tue 10:08:55 PM 38.4897 -95.3183 84° East 472 543 35,000  Level Kansas City Center
Tue 10:09:56 PM 38.5031 -95.1333 85° East 472 543 35,000  Level Kansas City Center
Tue 10:10:58 PM 38.5147 -94.9747 85° East 472 543 35,000  Level Kansas City Center
Tue 10:12:00 PM 38.5272 -94.7892 85° East 472 543 35,000  Level Kansas City Center
Tue 10:13:02 PM 38.5372 -94.6292 85° East 474 545 35,000 -48 Level Kansas City Center
Tue 10:14:04 PM 38.5503 -94.4425 85° East 475 547 34,900 -537 Descending Kansas City Center
Tue 10:15:05 PM 38.5592 -94.2822 86° East 474 545 33,900 -1,024 Descending Kansas City Center
Tue 10:16:07 PM 38.5711 -94.0942 85° East 477 549 32,800 -968 Descending Kansas City Center
Tue 10:17:09 PM 38.5811 -93.9311 85° East 480 552 31,900 -968 Descending Kansas City Center
Tue 10:18:11 PM 38.5925 -93.7411 86° East 481 554 30,800 -968 Descending Kansas City Center
Tue 10:19:13 PM 38.6017 -93.5867 86° East 485 558 29,900 -823 Descending Kansas City Center
Tue 10:20:15 PM 38.6125 -93.4128 85° East 489 563 29,100 -439 Descending Kansas City Center
Tue 10:21:16 PM 38.6211 -93.2369 86° East 492 566 29,000 -49 Descending Kansas City Center
Tue 10:22:18 PM 38.6325 -93.0269 86° East 492 566 29,000  Level Kansas City Center
Tue 10:23:20 PM 38.6408 -92.8508 86° East 492 566 29,000  Level Kansas City Center
Tue 10:24:22 PM 38.6508 -92.6733 86° East 495 570 29,000 -98 Level Kansas City Center
Tue 10:25:23 PM 38.6586 -92.4958 87° East 497 572 28,800 -1,366 Descending Kansas City Center
Tue 10:26:25 PM 38.6661 -92.3183 87° East 496 571 26,200 -2,468 Descending Kansas City Center
Tue 10:27:27 PM 38.6742 -92.1486 86° East 482 555 23,700 -2,516 Descending Kansas City Center
Tue 10:28:29 PM 38.6794 -91.9842 88° East 466 536 21,000 -2,585 Descending Kansas City Center
Tue 10:29:30 PM 38.6861 -91.8247 87° East 453 521 18,400 -2,537 Descending Kansas City Center
Tue 10:30:32 PM 38.6914 -91.6717 87° East 436 502 15,800 -2,710 Descending Kansas City Center
Tue 10:31:34 PM 38.6911 -91.4944 90° East 417 480 12,800 -1,984 Descending Kansas City Center
Tue 10:32:36 PM 38.6919 -91.3622 89° East 411 473 11,700 -878 Descending Kansas City Center
Tue 10:33:37 PM 38.6936 -91.2228 89° East 398 458 11,000 -439 Descending Kansas City Center
Tue 10:34:39 PM 38.7214 -91.0975 74° East 372 428 10,800 -532 Descending Kansas City Center
Tue 10:35:41 PM 38.7492 -90.9900 72° East 330 380 9,900 -1,452 Descending Kansas City Center
Tue 10:36:43 PM 38.7786 -90.8644 73° East 309 356 7,800 -1,756 Descending Kansas City Center
Tue 10:37:44 PM 38.8025 -90.7603 74° East 306 352 6,300 -1,317 Descending Kansas City Center
Tue 10:38:46 PM 38.8356 -90.6656 66° East 296 341 5,100 -1,016 Descending Kansas City Center
Tue 10:39:48 PM 38.8733 -90.6031 52° Northeast 258 297 4,200 -927 Descending Kansas City Center
Tue 10:40:49 PM 38.8392 -90.5553 133° Southeast 202 232 3,200 -829 Descending Kansas City Center
Tue 10:41:51 PM 38.8133 -90.4997 121° Southeast 188 216 2,500 -677 Descending Kansas City Center

Login

Don't have an account? Register now (free) for customized features, flight alerts, and more!